Terminal Aerodrome Forecast
Issued by NWS

Home | Current Version | Previous Version | Text Only | Print | Product List | Glossary On
Versions: 1 2 3 4 5 6 7 8 9 10 11 12
000
FTUS46 KPDT 271100
TAFRDM
TAF
KRDM 271120Z 2712/2812 VRB03KT P6SM SKC
     FM272000 32008KT P6SM SCT250
     FM280400 VRB04KT P6SM SKC=

USA.gov is the U.S. government's official web portal to all federal, state and local government web resources and services.